Weather at Aerodromo Goncalves Lobato (Viseu Airport)

Public forecast

Using degrees Celsius for public forecast. Weather courtesy of forecast.io.

Closest aviation weather report (METAR) to Aerodromo Goncalves Lobato (Viseu Airport)

Report is more than 2 hours old.

Closest report is Ovar Air Base, 36.2 nm (67.1 km) WNW.

2024/07/24 20:00 (retrieved 5 hours ago)

LPOV 242000Z 27004KT 240V300 CAVOK 20/18 Q1015

Closest aviation forecast (TAF) to Aerodromo Goncalves Lobato (Viseu Airport)

Closest forecast is Ovar Air Base, 36.2 nm (67.1 km) WNW.

2024/07/24 20:09 Ammendment (retrieved 5 hours ago)

TAF AMD TAF AMD LPOV 242004Z 2420/2518 CNL